createdAt,value
2022-11-24T00:04:34.362Z,20.17
2022-11-24T00:09:31.873Z,19.27
2022-11-24T00:14:27.356Z,20.25
2022-11-24T00:19:20.770Z,20.35
2022-11-24T00:24:15.261Z,17.23
2022-11-24T00:29:10.334Z,16.50
2022-11-24T00:34:06.240Z,19.48
2022-11-24T00:39:01.065Z,22.27
2022-11-24T00:43:54.617Z,26.75
2022-11-24T00:53:42.746Z,20.02
2022-11-24T01:03:29.700Z,19.80
2022-11-24T01:08:23.104Z,21.23
2022-11-24T01:13:17.252Z,18.25
2022-11-24T01:18:11.741Z,20.08
2022-11-24T01:23:05.591Z,16.83
2022-11-24T01:27:59.552Z,17.58
2022-11-24T01:32:54.467Z,15.57
2022-11-24T01:37:48.608Z,15.80
2022-11-24T01:47:41.852Z,15.38
2022-11-24T01:52:37.030Z,15.35
2022-11-24T01:57:35.102Z,16.20
2022-11-24T02:02:30.618Z,13.75
2022-11-24T02:07:24.727Z,14.35
2022-11-24T02:12:18.848Z,13.02
2022-11-24T02:17:12.903Z,16.25
2022-11-24T02:22:06.405Z,14.65
2022-11-24T02:27:00.381Z,13.32
2022-11-24T02:31:56.222Z,15.00
2022-11-24T02:36:50.206Z,13.38
2022-11-24T02:41:51.967Z,11.27
2022-11-24T02:46:45.192Z,11.45
2022-11-24T02:51:38.748Z,11.70
2022-11-24T02:56:33.067Z,10.63
2022-11-24T03:01:27.221Z,12.98
2022-11-24T03:06:20.897Z,12.93
2022-11-24T03:11:14.754Z,14.10
2022-11-24T03:16:11.557Z,15.02
2022-11-24T03:21:06.242Z,11.05
2022-11-24T03:26:13.426Z,15.85
2022-11-24T03:31:08.300Z,15.82
2022-11-24T03:36:01.924Z,17.13
2022-11-24T03:40:55.902Z,11.50
2022-11-24T03:45:50.687Z,8.57
2022-11-24T03:50:45.642Z,10.20
2022-11-24T03:55:39.495Z,11.77
2022-11-24T04:05:26.102Z,16.33
2022-11-24T04:10:20.451Z,12.93
2022-11-24T04:15:16.730Z,11.73
2022-11-24T04:20:13.158Z,11.55
2022-11-24T04:25:08.351Z,11.93
2022-11-24T04:30:01.785Z,7.10
2022-11-24T04:34:55.396Z,7.95
2022-11-24T04:39:48.448Z,4.63
2022-11-24T04:44:42.308Z,7.97
2022-11-24T04:49:35.986Z,6.50
2022-11-24T04:54:30.334Z,5.05
2022-11-24T04:59:24.389Z,7.53
2022-11-24T05:04:21.328Z,5.07
2022-11-24T05:09:18.385Z,6.35
2022-11-24T05:14:12.592Z,5.82
2022-11-24T05:19:06.194Z,11.07
2022-11-24T05:24:00.633Z,5.38
2022-11-24T05:28:54.233Z,5.28
2022-11-24T05:33:48.472Z,4.90
2022-11-24T05:38:46.448Z,5.40
2022-11-24T05:43:40.339Z,6.78
2022-11-24T05:48:34.573Z,7.65
2022-11-24T05:53:27.655Z,4.95
2022-11-24T05:58:21.160Z,4.82
2022-11-24T06:03:15.344Z,9.98
2022-11-24T06:08:09.253Z,7.13
2022-11-24T06:17:59.677Z,17.98
2022-11-24T06:22:53.094Z,12.38
2022-11-24T06:27:47.293Z,7.97
2022-11-24T06:32:49.291Z,13.13
2022-11-24T06:37:43.249Z,8.35
2022-11-24T06:42:37.583Z,9.82
2022-11-24T06:47:31.405Z,9.73
2022-11-24T06:52:25.735Z,7.47
2022-11-24T06:57:19.839Z,9.23
2022-11-24T07:02:14.481Z,7.78
2022-11-24T07:07:08.688Z,12.45
2022-11-24T07:12:02.894Z,9.63
2022-11-24T07:21:50.328Z,28.10
2022-11-24T07:31:37.888Z,26.60
2022-11-24T07:36:31.736Z,17.23
2022-11-24T07:41:24.770Z,14.15
2022-11-24T07:46:19.853Z,18.77
2022-11-24T07:51:14.165Z,16.40
2022-11-24T07:56:09.061Z,18.67
2022-11-24T08:01:17.395Z,11.43
2022-11-24T08:06:33.901Z,8.52
2022-11-24T08:11:25.796Z,12.77
2022-11-24T08:16:21.287Z,10.65
2022-11-24T08:21:15.674Z,9.75
2022-11-24T08:26:16.753Z,10.57
2022-11-24T08:31:13.647Z,8.50
2022-11-24T08:36:12.061Z,9.05
2022-11-24T08:41:08.141Z,9.32
2022-11-24T08:46:07.102Z,9.50
2022-11-24T08:51:06.143Z,12.55
2022-11-24T08:56:04.258Z,15.75
2022-11-24T09:01:07.988Z,12.95
2022-11-24T09:06:02.475Z,16.58
2022-11-24T09:11:06.194Z,13.00
2022-11-24T09:16:13.300Z,15.48
2022-11-24T09:21:25.033Z,10.65
2022-11-24T09:26:24.290Z,9.38
2022-11-24T09:31:18.927Z,13.38
2022-11-24T09:36:12.833Z,10.65
2022-11-24T09:41:18.217Z,8.77
2022-11-24T09:46:21.508Z,8.45
2022-11-24T09:51:16.557Z,8.65
2022-11-24T09:56:23.999Z,9.27
2022-11-24T10:01:31.075Z,11.73
2022-11-24T10:06:35.055Z,17.33
2022-11-24T10:11:40.668Z,13.15
2022-11-24T10:16:51.335Z,14.25
2022-11-24T10:22:18.741Z,14.27
2022-11-24T10:27:24.539Z,12.07
2022-11-24T10:32:28.426Z,12.88
2022-11-24T10:37:31.442Z,14.50
2022-11-24T10:42:30.367Z,13.15
2022-11-24T10:47:29.896Z,12.73
2022-11-24T10:52:23.058Z,15.18
2022-11-24T10:57:29.147Z,12.80
2022-11-24T11:02:38.651Z,13.88
2022-11-24T11:07:32.023Z,12.95
2022-11-24T11:12:43.747Z,13.75
2022-11-24T11:17:40.229Z,13.52
2022-11-24T11:22:37.216Z,14.68
2022-11-24T11:27:31.333Z,14.15
2022-11-24T11:38:02.437Z,13.68
2022-11-24T11:43:03.844Z,12.60
2022-11-24T11:48:06.495Z,16.10
2022-11-24T11:53:19.902Z,18.15
2022-11-24T11:58:16.079Z,15.50
2022-11-24T12:03:21.482Z,15.10
2022-11-24T12:08:21.554Z,13.93
2022-11-24T12:13:35.447Z,14.45
2022-11-24T12:18:58.340Z,14.07
2022-11-24T12:24:19.261Z,17.47
2022-11-24T12:29:47.066Z,13.50
2022-11-24T12:34:51.453Z,19.15
2022-11-24T12:40:01.442Z,17.00
2022-11-24T12:45:01.772Z,15.43
2022-11-24T12:50:22.233Z,12.63
2022-11-24T12:55:55.478Z,13.27
2022-11-24T13:01:25.366Z,17.05
2022-11-24T13:06:49.284Z,13.55
2022-11-24T13:12:14.145Z,13.80
2022-11-24T13:18:05.107Z,13.13
2022-11-24T13:23:41.511Z,15.65
2022-11-24T13:29:06.133Z,21.33
2022-11-24T13:34:46.098Z,17.73
2022-11-24T13:40:14.618Z,15.43
2022-11-24T13:45:39.685Z,16.35
2022-11-24T13:50:51.377Z,16.08
2022-11-24T13:56:13.716Z,17.63
2022-11-24T14:01:26.717Z,13.97
2022-11-24T14:06:29.765Z,17.77
2022-11-24T14:11:22.928Z,16.70
2022-11-24T14:21:21.722Z,15.70
2022-11-24T14:26:25.541Z,16.45
2022-11-24T14:31:23.274Z,16.60
2022-11-24T14:36:18.331Z,18.25
2022-11-24T14:41:28.735Z,18.42
2022-11-24T14:46:22.929Z,17.48
2022-11-24T14:51:25.109Z,21.70
2022-11-24T14:56:28.434Z,19.60
2022-11-24T15:01:27.679Z,13.80
2022-11-24T15:06:22.489Z,14.40
2022-11-24T15:11:15.810Z,18.40
2022-11-24T15:16:16.382Z,13.15
2022-11-24T15:21:15.596Z,19.65
2022-11-24T15:26:12.046Z,21.63
2022-11-24T15:31:13.937Z,19.25
2022-11-24T15:36:08.907Z,20.70
2022-11-24T15:41:03.045Z,34.80
2022-11-24T15:45:57.225Z,26.15
2022-11-24T15:50:51.263Z,28.33
2022-11-24T15:55:44.605Z,26.02
2022-11-24T16:00:38.196Z,30.48
2022-11-24T16:05:32.966Z,29.10
2022-11-24T16:10:29.264Z,25.80
2022-11-24T16:15:23.188Z,28.83
2022-11-24T16:20:17.651Z,41.45
2022-11-24T16:25:11.519Z,41.97
2022-11-24T16:30:07.516Z,35.60
2022-11-24T16:35:01.713Z,37.47
2022-11-24T16:39:55.239Z,42.60
2022-11-24T16:44:49.455Z,43.92
2022-11-24T16:49:43.751Z,34.63
2022-11-24T16:54:38.057Z,35.67
2022-11-24T16:59:35.335Z,37.40
2022-11-24T17:04:28.578Z,64.78
2022-11-24T17:09:23.016Z,64.20
2022-11-24T17:14:17.103Z,51.22
2022-11-24T17:19:11.542Z,44.15
2022-11-24T17:24:07.843Z,40.88
2022-11-24T17:29:02.298Z,30.67
2022-11-24T17:33:57.958Z,34.97
2022-11-24T17:38:52.712Z,41.13
2022-11-24T17:44:09.057Z,39.95
2022-11-24T17:49:03.900Z,47.72
2022-11-24T17:53:58.366Z,49.60
2022-11-24T17:59:01.847Z,50.45
2022-11-24T18:03:55.736Z,58.85
2022-11-24T18:13:58.485Z,72.00
2022-11-24T18:19:08.923Z,65.72
2022-11-24T18:24:03.745Z,62.65
2022-11-24T18:28:57.687Z,52.05
2022-11-24T18:33:50.666Z,59.95
2022-11-24T18:38:44.478Z,72.32
2022-11-24T18:43:38.560Z,63.72
2022-11-24T18:48:31.807Z,69.50
2022-11-24T18:53:27.171Z,55.45
2022-11-24T18:58:20.659Z,51.72
2022-11-24T19:03:14.849Z,57.22
2022-11-24T19:08:08.941Z,56.05
2022-11-24T19:13:03.171Z,51.30
2022-11-24T19:17:56.689Z,53.20
2022-11-24T19:22:50.659Z,52.47
2022-11-24T19:27:45.012Z,41.03
2022-11-24T19:32:39.029Z,56.65
2022-11-24T19:37:33.408Z,46.72
2022-11-24T19:42:27.273Z,26.92
2022-11-24T19:47:21.607Z,27.80
2022-11-24T19:52:15.980Z,33.15
2022-11-24T19:57:10.286Z,26.40
2022-11-24T20:02:04.697Z,31.70
2022-11-24T20:06:59.507Z,34.67
2022-11-24T20:11:55.101Z,32.17
2022-11-24T20:16:49.066Z,38.55
2022-11-24T20:21:46.798Z,34.10
2022-11-24T20:26:43.092Z,34.35
2022-11-24T20:31:39.801Z,32.33
2022-11-24T20:36:35.895Z,30.23
2022-11-24T20:41:31.345Z,53.17
2022-11-24T20:46:27.583Z,37.97
2022-11-24T20:51:23.144Z,29.40
2022-11-24T20:56:22.525Z,26.10
2022-11-24T21:01:20.127Z,32.17
2022-11-24T21:06:14.973Z,20.27
2022-11-24T21:11:11.531Z,19.83
2022-11-24T21:16:17.136Z,19.45
2022-11-24T21:21:10.987Z,21.73
2022-11-24T21:26:10.301Z,21.95
2022-11-24T21:31:13.141Z,26.17
2022-11-24T21:36:06.441Z,20.60
2022-11-24T21:41:02.088Z,21.50
2022-11-24T21:45:56.338Z,22.38
2022-11-24T21:50:50.070Z,25.15
2022-11-24T21:55:44.384Z,25.90
2022-11-24T22:00:38.573Z,23.17
2022-11-24T22:05:32.717Z,27.38
2022-11-24T22:10:26.972Z,29.00
2022-11-24T22:15:20.948Z,29.98
2022-11-24T22:20:15.254Z,29.48
2022-11-24T22:25:10.844Z,27.30
2022-11-24T22:30:06.645Z,28.48
2022-11-24T22:35:01.175Z,35.08
2022-11-24T22:39:55.667Z,32.38
2022-11-24T22:44:49.422Z,34.40
2022-11-24T22:49:42.634Z,26.67
2022-11-24T22:54:36.431Z,27.05
2022-11-24T22:59:30.575Z,26.42
2022-11-24T23:04:24.736Z,21.95
2022-11-24T23:09:19.183Z,25.10
2022-11-24T23:14:16.886Z,23.73
2022-11-24T23:19:10.214Z,22.77
2022-11-24T23:24:06.424Z,27.42
2022-11-24T23:29:00.067Z,50.35
2022-11-24T23:33:53.263Z,27.35
2022-11-24T23:38:47.459Z,24.45
2022-11-24T23:43:42.786Z,27.58
2022-11-24T23:48:37.489Z,21.92
2022-11-24T23:53:33.833Z,24.15
2022-11-24T23:58:27.720Z,17.50
